Time;durP1;ratioP1;P1;durP2;ratioP2;P2;SDS_P1;SDS_P2;PMS_P1;PMS_P2;Temp;Humidity;BMP_temperature;BMP_pressure;BME280_temperature;BME280_humidity;BME280_pressure;Samples;Min_cycle;Max_cycle;Signal;HPM_P1;HPM_P2
2022/10/14 00:00:47;;;;;;;7.70;0.93;;;;;;;;;;5056501;27;20040;-69
2022/10/14 00:03:14;;;;;;;4.82;1.10;;;;;;;;;;5056262;27;20621;-69
2022/10/14 00:05:41;;;;;;;10.30;1.05;;;;;;;;;;5056282;27;20033;-69
2022/10/14 00:08:08;;;;;;;5.00;1.02;;;;;;;;;;5057050;27;20123;-71
2022/10/14 00:10:37;;;;;;;11.15;1.60;;;;;;;;;;5056275;27;20378;-71
2022/10/14 00:13:04;;;;;;;5.35;1.20;;;;;;;;;;5056489;27;20495;-70
2022/10/14 00:15:30;;;;;;;8.95;1.30;;;;;;;;;;5055437;27;20098;-69
2022/10/14 00:17:57;;;;;;;6.75;3.03;;;;;;;;;;5054964;28;20062;-72
2022/10/14 00:20:24;;;;;;;18.50;8.07;;;;;;;;;;5055933;27;20032;-70
2022/10/14 00:22:50;;;;;;;13.23;2.22;;;;;;;;;;5056747;27;20047;-71
2022/10/14 00:25:17;;;;;;;11.15;2.22;;;;;;;;;;5056429;27;20537;-69
2022/10/14 00:27:44;;;;;;;12.23;1.80;;;;;;;;;;5056389;27;20052;-72
2022/10/14 00:30:11;;;;;;;9.20;2.22;;;;;;;;;;5056347;27;20344;-72
2022/10/14 00:32:37;;;;;;;11.73;2.17;;;;;;;;;;5053917;27;20535;-72
2022/10/14 00:35:04;;;;;;;14.88;2.67;;;;;;;;;;5054394;28;20173;-72
2022/10/14 00:37:31;;;;;;;9.45;1.98;;;;;;;;;;5056603;27;20523;-72
2022/10/14 00:39:57;;;;;;;18.30;1.85;;;;;;;;;;5056355;27;20055;-73
2022/10/14 00:42:24;;;;;;;8.98;1.77;;;;;;;;;;5056041;27;20131;-72
2022/10/14 00:44:51;;;;;;;8.88;1.85;;;;;;;;;;5056552;27;20053;-73
2022/10/14 00:47:18;;;;;;;8.07;1.40;;;;;;;;;;5056979;27;20564;-72
2022/10/14 00:49:44;;;;;;;9.63;1.80;;;;;;;;;;5055662;27;20079;-72
2022/10/14 00:52:13;;;;;;;12.82;2.05;;;;;;;;;;5045464;28;20041;-72
2022/10/14 00:54:48;;;;;;;7.90;1.70;;;;;;;;;;5054760;27;20072;-73
2022/10/14 00:57:15;;;;;;;9.15;1.88;;;;;;;;;;5055475;27;20041;-73
2022/10/14 00:59:42;;;;;;;12.93;2.45;;;;;;;;;;5052557;27;20044;-71
2022/10/14 01:02:08;;;;;;;16.20;2.03;;;;;;;;;;5053292;28;21755;-71
2022/10/14 01:04:37;;;;;;;10.48;2.30;;;;;;;;;;5054480;27;20139;-72
2022/10/14 01:07:25;;;;;;;12.10;3.30;;;;;;;;;;5056840;27;20032;-72
2022/10/14 01:09:58;;;;;;;11.68;2.40;;;;;;;;;;5055179;27;20158;-72
2022/10/14 01:12:56;;;;;;;10.52;2.38;;;;;;;;;;5054624;27;20050;-73
2022/10/14 01:15:37;;;;;;;20.27;2.88;;;;;;;;;;5035226;28;20064;-73
2022/10/14 01:18:15;;;;;;;16.50;3.67;;;;;;;;;;5055850;28;20048;-74
2022/10/14 01:20:41;;;;;;;14.63;2.85;;;;;;;;;;5054304;28;20044;-73
2022/10/14 01:23:08;;;;;;;10.75;2.75;;;;;;;;;;5055172;28;20044;-72
2022/10/14 01:25:37;;;;;;;14.57;2.80;;;;;;;;;;5054330;28;20893;-72
2022/10/14 01:28:22;;;;;;;13.80;2.95;;;;;;;;;;5055478;28;20044;-71
2022/10/14 01:30:50;;;;;;;13.18;3.40;;;;;;;;;;5055158;28;20041;-72
2022/10/14 01:33:22;;;;;;;13.05;3.13;;;;;;;;;;5055993;28;20056;-72
2022/10/14 01:35:48;;;;;;;12.50;3.50;;;;;;;;;;5055663;28;20032;-72
2022/10/14 01:38:22;;;;;;;14.43;3.03;;;;;;;;;;5073291;28;20110;-73
2022/10/14 01:40:49;;;;;;;12.77;3.25;;;;;;;;;;5087629;28;20978;-72
2022/10/14 01:43:17;;;;;;;15.20;3.08;;;;;;;;;;5054476;28;20139;-72
2022/10/14 01:45:47;;;;;;;13.52;2.80;;;;;;;;;;5054902;28;20048;-70
2022/10/14 01:48:15;;;;;;;15.40;4.50;;;;;;;;;;5055522;28;21671;-70
2022/10/14 01:50:44;;;;;;;21.00;4.30;;;;;;;;;;5055120;28;20189;-71
2022/10/14 01:53:14;;;;;;;21.17;4.30;;;;;;;;;;5055111;28;20093;-70
2022/10/14 01:55:43;;;;;;;10.55;3.03;;;;;;;;;;5055086;28;20123;-70
2022/10/14 01:58:10;;;;;;;10.07;2.78;;;;;;;;;;5054418;28;20036;-72
2022/10/14 02:00:37;;;;;;;11.77;2.63;;;;;;;;;;5053869;28;20522;-72
2022/10/14 02:03:04;;;;;;;7.28;2.53;;;;;;;;;;5054254;28;20044;-71
2022/10/14 02:05:33;;;;;;;9.60;2.80;;;;;;;;;;5054362;28;20133;-72
2022/10/14 02:08:07;;;;;;;11.95;2.30;;;;;;;;;;5054898;28;20040;-72
2022/10/14 02:10:54;;;;;;;8.00;2.65;;;;;;;;;;5054172;28;20130;-71
2022/10/14 02:13:20;;;;;;;11.30;2.90;;;;;;;;;;5053183;28;20033;-72
2022/10/14 02:15:47;;;;;;;7.40;2.83;;;;;;;;;;5052691;28;20186;-72
2022/10/14 02:18:14;;;;;;;11.05;2.80;;;;;;;;;;5054976;28;20044;-71
2022/10/14 02:20:42;;;;;;;10.13;2.20;;;;;;;;;;5053794;28;20036;-69
2022/10/14 02:23:11;;;;;;;15.45;2.60;;;;;;;;;;5053777;28;20378;-68
2022/10/14 02:25:39;;;;;;;7.70;2.28;;;;;;;;;;5054244;28;20080;-68
2022/10/14 02:28:07;;;;;;;10.10;2.85;;;;;;;;;;5054984;28;20548;-68
2022/10/14 02:30:36;;;;;;;13.40;3.28;;;;;;;;;;5055294;28;20043;-71
2022/10/14 02:33:04;;;;;;;11.85;2.97;;;;;;;;;;5058873;28;20559;-70
2022/10/14 02:35:33;;;;;;;22.75;10.52;;;;;;;;;;5073846;27;20675;-71
2022/10/14 02:38:00;;;;;;;14.70;5.22;;;;;;;;;;5079288;27;20143;-71
2022/10/14 02:40:29;;;;;;;10.75;3.45;;;;;;;;;;5070656;27;20071;-70
2022/10/14 02:42:56;;;;;;;11.05;3.90;;;;;;;;;;5069573;27;20075;-70
2022/10/14 02:45:24;;;;;;;22.23;4.05;;;;;;;;;;5077829;27;20151;-68
2022/10/14 02:47:51;;;;;;;11.00;3.35;;;;;;;;;;5078072;27;20806;-69
2022/10/14 02:50:18;;;;;;;11.93;2.67;;;;;;;;;;5061419;27;20047;-69
2022/10/14 02:52:45;;;;;;;14.75;2.63;;;;;;;;;;5057770;28;20773;-71
2022/10/14 02:55:11;;;;;;;13.25;2.67;;;;;;;;;;5058307;28;20558;-69
2022/10/14 02:57:38;;;;;;;14.35;2.65;;;;;;;;;;5057696;28;20036;-69
2022/10/14 03:00:06;;;;;;;11.27;1.85;;;;;;;;;;5060566;28;20050;-69
2022/10/14 03:02:32;;;;;;;5.10;1.92;;;;;;;;;;5057515;28;20378;-70
2022/10/14 03:04:59;;;;;;;8.82;2.28;;;;;;;;;;5056776;28;20213;-69
2022/10/14 03:07:25;;;;;;;6.03;1.75;;;;;;;;;;5058087;28;20044;-70
2022/10/14 03:09:52;;;;;;;9.18;2.05;;;;;;;;;;5057876;28;20128;-69
2022/10/14 03:12:19;;;;;;;6.63;2.20;;;;;;;;;;5057900;28;20099;-70
2022/10/14 03:14:45;;;;;;;7.22;1.98;;;;;;;;;;5056730;28;21661;-70
2022/10/14 03:17:12;;;;;;;6.57;1.77;;;;;;;;;;5058197;28;20074;-70
2022/10/14 03:19:38;;;;;;;8.55;2.00;;;;;;;;;;5056979;28;20393;-69
2022/10/14 03:22:05;;;;;;;9.65;1.73;;;;;;;;;;5057796;28;20044;-69
2022/10/14 03:24:32;;;;;;;4.15;1.40;;;;;;;;;;5056677;28;20454;-69
2022/10/14 03:26:58;;;;;;;7.85;1.35;;;;;;;;;;5058580;28;20048;-68
2022/10/14 03:29:25;;;;;;;7.65;1.48;;;;;;;;;;5056668;28;20041;-70
2022/10/14 03:31:51;;;;;;;7.95;1.27;;;;;;;;;;5057572;28;20089;-72
2022/10/14 03:34:18;;;;;;;6.25;1.58;;;;;;;;;;5057143;28;20029;-69
2022/10/14 03:36:45;;;;;;;5.93;1.27;;;;;;;;;;5057305;28;20110;-70
2022/10/14 03:39:11;;;;;;;8.35;1.42;;;;;;;;;;5062406;28;20401;-72
2022/10/14 03:41:38;;;;;;;6.85;1.40;;;;;;;;;;5076776;27;20427;-71
2022/10/14 03:44:05;;;;;;;5.13;1.20;;;;;;;;;;5069344;27;20162;-71
2022/10/14 03:46:32;;;;;;;7.03;1.58;;;;;;;;;;5066878;27;20084;-71
2022/10/14 03:48:58;;;;;;;5.63;1.20;;;;;;;;;;5056208;28;21093;-71
2022/10/14 03:51:25;;;;;;;5.03;1.25;;;;;;;;;;5059178;27;20063;-70
2022/10/14 03:53:51;;;;;;;7.28;1.15;;;;;;;;;;5058469;28;20032;-71
2022/10/14 03:56:18;;;;;;;5.07;1.20;;;;;;;;;;5070849;27;20055;-71
2022/10/14 03:58:45;;;;;;;10.18;1.63;;;;;;;;;;5075477;28;20120;-71
2022/10/14 04:01:11;;;;;;;5.60;1.38;;;;;;;;;;5078095;27;20040;-70
2022/10/14 04:03:40;;;;;;;7.25;1.52;;;;;;;;;;5072969;27;20086;-70
2022/10/14 04:06:07;;;;;;;7.47;1.45;;;;;;;;;;5060045;28;20409;-70
2022/10/14 04:08:33;;;;;;;14.85;1.70;;;;;;;;;;5057006;28;20051;-72
2022/10/14 04:11:00;;;;;;;9.77;1.95;;;;;;;;;;5057853;28;20052;-72
2022/10/14 04:13:27;;;;;;;7.75;1.80;;;;;;;;;;5056017;28;20040;-72
2022/10/14 04:15:53;;;;;;;6.65;1.85;;;;;;;;;;5053613;28;20127;-70
2022/10/14 04:18:20;;;;;;;13.85;1.60;;;;;;;;;;5061564;27;20563;-70
2022/10/14 04:20:47;;;;;;;9.20;1.60;;;;;;;;;;5068568;27;20040;-69
2022/10/14 04:23:13;;;;;;;5.35;1.30;;;;;;;;;;5069459;27;20047;-69
2022/10/14 04:25:40;;;;;;;11.88;1.55;;;;;;;;;;5056496;27;20071;-70
2022/10/14 04:28:06;;;;;;;8.52;1.50;;;;;;;;;;5049618;28;20064;-69
2022/10/14 04:30:33;;;;;;;9.57;1.70;;;;;;;;;;5056049;28;20036;-70
2022/10/14 04:33:00;;;;;;;10.18;1.65;;;;;;;;;;5055894;28;20075;-70
2022/10/14 04:35:26;;;;;;;5.57;1.40;;;;;;;;;;5056529;28;20047;-70
2022/10/14 04:37:53;;;;;;;6.32;1.30;;;;;;;;;;5058601;28;20040;-69
2022/10/14 04:40:24;;;;;;;4.40;1.17;;;;;;;;;;5056895;28;20037;-70
2022/10/14 04:42:54;;;;;;;4.95;1.25;;;;;;;;;;5059775;28;20056;-70
2022/10/14 04:45:21;;;;;;;8.13;1.50;;;;;;;;;;5057084;28;20046;-71
2022/10/14 04:47:47;;;;;;;9.43;1.40;;;;;;;;;;5058189;28;20388;-70
2022/10/14 04:50:14;;;;;;;4.40;1.40;;;;;;;;;;5056252;28;20136;-71
2022/10/14 04:52:41;;;;;;;5.32;1.23;;;;;;;;;;5054849;28;20614;-70
2022/10/14 04:55:07;;;;;;;10.68;0.98;;;;;;;;;;5056127;28;20040;-71
2022/10/14 04:57:39;;;;;;;2.88;0.82;;;;;;;;;;5055362;28;20101;-72
2022/10/14 05:00:06;;;;;;;3.78;1.00;;;;;;;;;;5073225;28;20047;-71
2022/10/14 05:02:32;;;;;;;5.93;1.17;;;;;;;;;;5058130;28;20654;-70
2022/10/14 05:04:59;;;;;;;4.45;1.00;;;;;;;;;;5056363;28;20055;-70
2022/10/14 05:07:26;;;;;;;6.22;1.13;;;;;;;;;;5055673;28;20443;-71
2022/10/14 05:09:53;;;;;;;6.38;1.00;;;;;;;;;;5056406;28;20043;-72
2022/10/14 05:12:19;;;;;;;4.85;1.40;;;;;;;;;;5056144;28;20588;-71
2022/10/14 05:14:46;;;;;;;8.18;1.40;;;;;;;;;;5054111;28;20420;-70
2022/10/14 05:17:13;;;;;;;2.78;0.82;;;;;;;;;;5054437;28;20056;-70
2022/10/14 05:19:39;;;;;;;7.32;1.02;;;;;;;;;;5054651;28;20040;-70
2022/10/14 05:22:06;;;;;;;3.42;1.10;;;;;;;;;;5056332;28;20036;-70
2022/10/14 05:24:33;;;;;;;5.03;1.27;;;;;;;;;;5054015;28;20109;-71
2022/10/14 05:26:59;;;;;;;5.75;1.10;;;;;;;;;;5055883;28;20797;-68
2022/10/14 05:29:26;;;;;;;5.82;1.00;;;;;;;;;;5053956;28;20044;-69
2022/10/14 05:31:52;;;;;;;3.05;0.88;;;;;;;;;;5053916;28;20048;-70
2022/10/14 05:34:19;;;;;;;7.30;1.30;;;;;;;;;;5054206;28;20037;-70
2022/10/14 05:36:45;;;;;;;6.45;1.00;;;;;;;;;;5054125;28;20040;-71
2022/10/14 05:39:12;;;;;;;4.80;1.38;;;;;;;;;;5054587;28;20039;-70
2022/10/14 05:41:39;;;;;;;4.38;1.00;;;;;;;;;;5053959;28;20520;-71
2022/10/14 05:44:06;;;;;;;5.18;1.30;;;;;;;;;;5054460;28;20044;-70
2022/10/14 05:46:32;;;;;;;8.50;1.42;;;;;;;;;;5053454;28;20045;-71
2022/10/14 05:49:01;;;;;;;5.95;1.15;;;;;;;;;;5055059;28;20040;-70
2022/10/14 05:51:27;;;;;;;3.80;1.10;;;;;;;;;;5053148;28;20068;-70
2022/10/14 05:53:54;;;;;;;9.00;1.20;;;;;;;;;;5054004;28;20036;-71
2022/10/14 05:56:21;;;;;;;4.57;1.10;;;;;;;;;;5054088;28;20075;-70
2022/10/14 05:58:47;;;;;;;9.70;0.85;;;;;;;;;;5054797;28;20046;-70
2022/10/14 06:01:14;;;;;;;4.63;0.80;;;;;;;;;;5054655;28;20189;-70
2022/10/14 06:03:41;;;;;;;6.60;0.80;;;;;;;;;;5053138;28;20090;-69
2022/10/14 06:06:11;;;;;;;6.00;0.80;;;;;;;;;;5054882;28;20056;-68
2022/10/14 06:08:38;;;;;;;5.82;0.82;;;;;;;;;;5054709;28;20125;-69
2022/10/14 06:11:06;;;;;;;2.63;0.70;;;;;;;;;;5069427;28;20046;-70
2022/10/14 06:13:33;;;;;;;3.50;0.95;;;;;;;;;;5057455;28;20048;-70
2022/10/14 06:16:09;;;;;;;6.53;0.70;;;;;;;;;;5058774;28;20094;-69
2022/10/14 06:18:36;;;;;;;8.43;0.80;;;;;;;;;;5058454;28;20039;-71
2022/10/14 06:21:03;;;;;;;2.90;0.68;;;;;;;;;;5057552;28;20139;-69
2022/10/14 06:23:30;;;;;;;4.43;0.70;;;;;;;;;;5057549;28;20032;-69
2022/10/14 06:25:56;;;;;;;3.08;0.65;;;;;;;;;;5058871;28;20057;-68
2022/10/14 06:28:23;;;;;;;4.30;0.90;;;;;;;;;;5058190;28;20044;-69
2022/10/14 06:30:53;;;;;;;2.28;0.60;;;;;;;;;;5059231;28;20056;-69
2022/10/14 06:33:20;;;;;;;3.15;0.63;;;;;;;;;;5057866;28;20048;-68
2022/10/14 06:35:47;;;;;;;2.90;0.90;;;;;;;;;;5058818;28;20546;-68
2022/10/14 06:38:14;;;;;;;6.30;1.42;;;;;;;;;;5058415;28;20501;-69
2022/10/14 06:40:41;;;;;;;6.70;2.22;;;;;;;;;;5058905;28;20048;-69
2022/10/14 06:43:07;;;;;;;5.32;1.80;;;;;;;;;;5058115;28;20045;-68
2022/10/14 06:45:34;;;;;;;9.30;2.28;;;;;;;;;;5089560;28;20167;-69
2022/10/14 06:48:00;;;;;;;8.00;2.20;;;;;;;;;;5058691;28;20508;-69
2022/10/14 06:50:27;;;;;;;6.38;1.73;;;;;;;;;;5057853;28;20051;-69
2022/10/14 06:52:53;;;;;;;5.43;1.42;;;;;;;;;;5059034;28;20056;-69
2022/10/14 06:55:20;;;;;;;7.40;1.35;;;;;;;;;;5057977;28;20044;-70
2022/10/14 06:57:47;;;;;;;4.50;0.70;;;;;;;;;;5059671;28;20039;-70
2022/10/14 07:00:13;;;;;;;3.45;0.75;;;;;;;;;;5058139;28;20040;-69
2022/10/14 07:02:40;;;;;;;5.15;0.82;;;;;;;;;;5057686;28;20131;-69
2022/10/14 07:05:07;;;;;;;6.25;0.70;;;;;;;;;;5058352;28;20784;-69
2022/10/14 07:07:33;;;;;;;3.78;0.90;;;;;;;;;;5057592;28;20041;-69
2022/10/14 07:10:00;;;;;;;5.55;0.77;;;;;;;;;;5057919;28;20152;-68
2022/10/14 07:12:27;;;;;;;2.00;0.60;;;;;;;;;;5056335;28;20041;-69
2022/10/14 07:14:54;;;;;;;6.28;0.80;;;;;;;;;;5057844;28;20045;-69
2022/10/14 07:17:20;;;;;;;2.47;0.80;;;;;;;;;;5057029;28;20131;-69
2022/10/14 07:19:47;;;;;;;1.42;0.50;;;;;;;;;;5058140;28;20580;-69
2022/10/14 07:22:15;;;;;;;5.45;0.70;;;;;;;;;;5057540;28;20392;-68
2022/10/14 07:24:41;;;;;;;2.50;0.70;;;;;;;;;;5055961;28;20052;-68
2022/10/14 07:27:08;;;;;;;1.88;0.50;;;;;;;;;;5057966;28;20755;-69
2022/10/14 07:29:35;;;;;;;3.25;0.60;;;;;;;;;;5056334;28;20592;-69
2022/10/14 07:32:02;;;;;;;3.05;0.77;;;;;;;;;;5057649;28;20098;-70
2022/10/14 07:34:28;;;;;;;2.55;0.50;;;;;;;;;;5057172;28;20040;-69
2022/10/14 07:36:55;;;;;;;4.47;0.60;;;;;;;;;;5057331;28;20036;-69
2022/10/14 07:39:22;;;;;;;1.33;0.50;;;;;;;;;;5057852;28;20503;-71
2022/10/14 07:41:49;;;;;;;1.67;0.70;;;;;;;;;;5056346;28;20041;-70
2022/10/14 07:44:16;;;;;;;3.10;0.90;;;;;;;;;;5055663;28;20212;-69
2022/10/14 07:46:44;;;;;;;8.63;0.90;;;;;;;;;;5056750;28;20574;-69
2022/10/14 07:49:12;;;;;;;3.45;0.60;;;;;;;;;;5055486;28;20174;-69
2022/10/14 07:51:39;;;;;;;2.97;0.60;;;;;;;;;;5056664;28;20753;-69
2022/10/14 07:54:10;;;;;;;8.95;0.70;;;;;;;;;;5056430;28;20463;-69
2022/10/14 07:56:38;;;;;;;3.30;0.88;;;;;;;;;;5055317;28;20116;-68
2022/10/14 07:59:05;;;;;;;3.38;0.68;;;;;;;;;;5056853;28;20036;-68
2022/10/14 08:01:31;;;;;;;2.97;0.98;;;;;;;;;;5056278;28;20035;-69
2022/10/14 08:03:58;;;;;;;3.60;0.90;;;;;;;;;;5055691;28;20052;-69
2022/10/14 08:06:25;;;;;;;5.07;0.65;;;;;;;;;;5056060;28;20123;-68
2022/10/14 08:08:52;;;;;;;5.03;0.73;;;;;;;;;;5056331;28;20037;-70
2022/10/14 08:11:26;;;;;;;4.53;0.70;;;;;;;;;;5057155;28;20041;-69
2022/10/14 08:13:53;;;;;;;2.80;0.70;;;;;;;;;;5068830;27;20052;-69
2022/10/14 08:16:22;;;;;;;3.53;0.80;;;;;;;;;;5076047;27;20048;-69
2022/10/14 08:18:49;;;;;;;2.30;0.70;;;;;;;;;;5076499;27;20040;-70
2022/10/14 08:21:16;;;;;;;5.88;0.90;;;;;;;;;;5060867;27;20036;-68
2022/10/14 08:23:43;;;;;;;2.55;0.70;;;;;;;;;;5057173;28;21953;-69
2022/10/14 08:26:29;;;;;;;2.67;0.60;;;;;;;;;;5056862;28;21040;-69
2022/10/14 08:28:57;;;;;;;4.82;0.60;;;;;;;;;;5056012;28;20124;-69
2022/10/14 08:31:24;;;;;;;4.00;0.70;;;;;;;;;;5071263;28;20122;-71
2022/10/14 08:33:51;;;;;;;1.15;0.40;;;;;;;;;;5055904;28;20611;-70
2022/10/14 08:36:18;;;;;;;2.78;0.70;;;;;;;;;;5055930;28;20103;-69
2022/10/14 08:38:44;;;;;;;2.97;0.70;;;;;;;;;;5055384;28;20033;-70
2022/10/14 08:41:14;;;;;;;1.70;0.60;;;;;;;;;;5056241;28;20672;-69
2022/10/14 08:43:54;;;;;;;3.55;0.73;;;;;;;;;;5055247;28;20048;-69
2022/10/14 08:46:26;;;;;;;8.60;0.70;;;;;;;;;;5056180;28;20054;-69
2022/10/14 08:49:01;;;;;;;4.25;0.88;;;;;;;;;;5056795;28;20844;-69
2022/10/14 08:51:30;;;;;;;2.22;0.63;;;;;;;;;;5055892;28;20918;-71
2022/10/14 08:54:02;;;;;;;1.75;0.60;;;;;;;;;;5055530;28;20044;-70
2022/10/14 08:56:29;;;;;;;2.27;0.60;;;;;;;;;;5055192;28;20032;-69
2022/10/14 08:59:00;;;;;;;2.97;0.80;;;;;;;;;;5057389;28;20048;-71
2022/10/14 09:01:33;;;;;;;4.18;0.82;;;;;;;;;;5055896;28;20047;-70
2022/10/14 09:04:03;;;;;;;6.53;0.70;;;;;;;;;;5055526;28;20056;-70
2022/10/14 09:06:30;;;;;;;5.95;0.85;;;;;;;;;;5055273;28;20044;-68
2022/10/14 09:09:04;;;;;;;6.72;0.80;;;;;;;;;;5055862;28;20508;-70
2022/10/14 09:11:34;;;;;;;2.47;0.65;;;;;;;;;;5053684;28;20513;-70
2022/10/14 09:14:02;;;;;;;2.72;0.75;;;;;;;;;;5070996;27;20032;-68
2022/10/14 09:16:30;;;;;;;1.48;0.50;;;;;;;;;;5055306;28;20036;-69
2022/10/14 09:18:59;;;;;;;2.30;0.80;;;;;;;;;;5055026;28;20394;-69
2022/10/14 09:21:33;;;;;;;2.95;0.75;;;;;;;;;;5054811;28;20105;-69
2022/10/14 09:24:00;;;;;;;4.30;0.77;;;;;;;;;;5054190;28;20050;-67
2022/10/14 09:26:29;;;;;;;1.92;0.60;;;;;;;;;;5055030;28;20040;-69
2022/10/14 09:28:56;;;;;;;4.15;0.65;;;;;;;;;;5070955;28;20044;-70
2022/10/14 09:31:23;;;;;;;2.72;0.80;;;;;;;;;;5054847;28;20137;-69
2022/10/14 09:33:49;;;;;;;3.50;0.73;;;;;;;;;;5054631;28;20079;-70
2022/10/14 09:36:17;;;;;;;3.00;0.80;;;;;;;;;;5055336;28;20132;-70
2022/10/14 09:38:50;;;;;;;4.13;0.77;;;;;;;;;;5048528;28;20068;-70
2022/10/14 09:41:17;;;;;;;2.28;0.50;;;;;;;;;;5071541;28;20262;-69
2022/10/14 09:44:02;;;;;;;3.05;0.70;;;;;;;;;;5054902;28;20093;-68
2022/10/14 09:46:29;;;;;;;3.67;0.60;;;;;;;;;;5054526;28;20044;-69
2022/10/14 09:48:55;;;;;;;3.42;0.70;;;;;;;;;;5054018;28;20072;-69
2022/10/14 09:51:30;;;;;;;3.53;0.90;;;;;;;;;;5054561;28;20047;-69
2022/10/14 09:54:05;;;;;;;4.20;0.95;;;;;;;;;;5055481;28;20531;-68
2022/10/14 09:56:36;;;;;;;2.67;0.85;;;;;;;;;;5055630;28;20037;-69
2022/10/14 09:59:04;;;;;;;3.80;0.77;;;;;;;;;;5055027;28;21114;-69
2022/10/14 10:01:36;;;;;;;2.78;0.88;;;;;;;;;;5053920;28;20028;-70
2022/10/14 10:04:20;;;;;;;2.78;0.82;;;;;;;;;;5055093;28;20052;-69
2022/10/14 10:06:54;;;;;;;3.38;0.85;;;;;;;;;;5055293;28;20051;-70
2022/10/14 10:09:20;;;;;;;;;;;;;;;;;;5054188;28;20072;-70
2022/10/14 10:12:29;;;;;;;3.33;0.90;;;;;;;;;;5059244;28;19920;-69
2022/10/14 10:15:02;;;;;;;8.23;1.00;;;;;;;;;;5059511;28;20502;-70
2022/10/14 10:17:31;;;;;;;3.35;0.85;;;;;;;;;;5060258;28;20059;-69
2022/10/14 10:20:16;;;;;;;3.72;1.10;;;;;;;;;;5059676;28;20414;-70
2022/10/14 10:22:43;;;;;;;3.95;0.80;;;;;;;;;;5060067;28;20110;-69
2022/10/14 10:25:10;;;;;;;2.13;0.80;;;;;;;;;;5061083;27;20532;-68
2022/10/14 10:27:39;;;;;;;3.30;0.70;;;;;;;;;;5060162;28;20045;-68
2022/10/14 10:30:21;;;;;;;3.97;0.80;;;;;;;;;;5060218;28;20040;-69
2022/10/14 10:32:50;;;;;;;2.88;0.75;;;;;;;;;;5058976;28;20036;-69
2022/10/14 10:35:20;;;;;;;3.55;0.98;;;;;;;;;;5060756;28;20055;-68
2022/10/14 10:37:48;;;;;;;2.92;0.90;;;;;;;;;;5059942;28;20048;-70
2022/10/14 10:40:23;;;;;;;3.42;0.90;;;;;;;;;;5060356;28;20342;-68
2022/10/14 10:42:55;;;;;;;3.70;1.00;;;;;;;;;;5059499;28;20068;-68
2022/10/14 10:45:37;;;;;;;5.68;1.10;;;;;;;;;;5060183;28;20044;-68
2022/10/14 10:48:13;;;;;;;6.60;1.08;;;;;;;;;;5060854;28;20043;-68
2022/10/14 10:50:42;;;;;;;3.90;0.98;;;;;;;;;;5054197;28;20043;-68
2022/10/14 10:53:24;;;;;;;4.40;1.10;;;;;;;;;;5053556;28;20048;-69
2022/10/14 10:56:09;;;;;;;4.22;0.93;;;;;;;;;;5054413;28;20374;-68
2022/10/14 10:58:43;;;;;;;4.22;0.90;;;;;;;;;;5056235;28;20049;-69
2022/10/14 11:01:12;;;;;;;3.17;1.00;;;;;;;;;;5058254;28;20094;-68
2022/10/14 11:03:53;;;;;;;4.65;1.10;;;;;;;;;;5056029;28;20168;-69
2022/10/14 11:12:24;;;;;;;3.45;0.93;;;;;;;;;;5057678;28;20102;-70
2022/10/14 11:14:53;;;;;;;3.10;0.90;;;;;;;;;;5062098;28;21694;-69
2022/10/14 11:17:38;;;;;;;3.75;0.90;;;;;;;;;;5062607;27;20036;-70
2022/10/14 11:20:05;;;;;;;3.38;0.95;;;;;;;;;;5060072;28;20149;-68
2022/10/14 11:22:47;;;;;;;5.97;0.90;;;;;;;;;;5056755;28;20087;-68
2022/10/14 11:25:26;;;;;;;3.72;1.00;;;;;;;;;;5073089;28;20416;-68
2022/10/14 11:28:09;;;;;;;1.92;0.50;;;;;;;;;;5057870;28;20115;-69
2022/10/14 11:30:36;;;;;;;4.28;0.93;;;;;;;;;;5057083;28;20040;-69
2022/10/14 11:33:22;;;;;;;3.55;0.88;;;;;;;;;;5056811;28;20048;-69
2022/10/14 11:35:49;;;;;;;3.90;1.17;;;;;;;;;;5050022;28;20040;-69
2022/10/14 11:38:19;;;;;;;9.57;1.10;;;;;;;;;;5057998;28;21790;-70
2022/10/14 11:40:51;;;;;;;5.80;1.00;;;;;;;;;;5056253;28;20174;-70
2022/10/14 11:43:38;;;;;;;4.97;1.02;;;;;;;;;;5072906;28;20090;-69
2022/10/14 11:46:09;;;;;;;3.58;0.98;;;;;;;;;;5065081;27;20106;-69
2022/10/14 11:48:42;;;;;;;5.25;1.13;;;;;;;;;;5073937;27;20032;-70
2022/10/14 11:51:12;;;;;;;4.10;1.10;;;;;;;;;;5054380;28;20041;-69
2022/10/14 11:53:43;;;;;;;3.65;1.00;;;;;;;;;;5062674;27;20049;-70
2022/10/14 11:56:32;;;;;;;6.00;1.17;;;;;;;;;;5057508;28;20128;-70
2022/10/14 11:59:02;;;;;;;3.03;0.90;;;;;;;;;;5056873;28;20523;-70
2022/10/14 12:01:29;;;;;;;5.50;1.02;;;;;;;;;;5070352;28;20041;-69
2022/10/14 12:03:59;;;;;;;4.85;1.10;;;;;;;;;;5058484;28;20053;-70
2022/10/14 12:06:43;;;;;;;4.35;0.98;;;;;;;;;;5056895;28;20044;-69
2022/10/14 12:09:16;;;;;;;8.88;1.23;;;;;;;;;;5056272;28;20041;-69
2022/10/14 12:11:46;;;;;;;6.28;1.02;;;;;;;;;;5056700;28;20051;-70
2022/10/14 12:14:32;;;;;;;7.53;1.23;;;;;;;;;;5057758;27;20129;-68
2022/10/14 12:17:01;;;;;;;8.18;1.13;;;;;;;;;;5056258;28;20143;-67
2022/10/14 12:19:29;;;;;;;5.68;1.27;;;;;;;;;;5056124;28;20040;-68
2022/10/14 12:22:00;;;;;;;7.93;1.30;;;;;;;;;;5057144;28;20048;-69
2022/10/14 12:24:31;;;;;;;5.25;1.13;;;;;;;;;;5057317;27;20056;-68
2022/10/14 12:27:00;;;;;;;6.05;1.20;;;;;;;;;;5057807;28;20048;-68
2022/10/14 12:29:32;;;;;;;10.50;1.63;;;;;;;;;;5056952;28;20033;-71
2022/10/14 12:32:06;;;;;;;13.43;1.20;;;;;;;;;;5057158;28;20610;-69
2022/10/14 12:34:39;;;;;;;9.32;1.58;;;;;;;;;;5057032;28;20052;-68
2022/10/14 12:37:26;;;;;;;6.05;1.20;;;;;;;;;;5056949;28;20048;-68
2022/10/14 12:40:02;;;;;;;5.90;1.40;;;;;;;;;;5046859;28;20044;-68
2022/10/14 12:42:45;;;;;;;6.43;1.40;;;;;;;;;;5055677;28;20059;-68
2022/10/14 12:45:16;;;;;;;6.22;1.45;;;;;;;;;;5057526;28;20052;-69
2022/10/14 12:47:43;;;;;;;11.35;1.90;;;;;;;;;;5055877;28;20040;-69
2022/10/14 12:50:16;;;;;;;6.80;1.70;;;;;;;;;;5056133;28;20862;-71
2022/10/14 12:52:42;;;;;;;;;;;;;;;;;;5057622;28;20181;-70
2022/10/14 12:55:14;;;;;;;7.53;1.70;;;;;;;;;;5053921;28;19927;-70
2022/10/14 12:57:41;;;;;;;3.72;1.20;;;;;;;;;;5054874;28;20063;-68
2022/10/14 13:00:14;;;;;;;7.47;1.35;;;;;;;;;;5056273;28;20116;-69
2022/10/14 13:02:45;;;;;;;3.78;1.15;;;;;;;;;;5055659;28;20036;-70
2022/10/14 13:05:30;;;;;;;4.90;1.60;;;;;;;;;;5052577;28;20100;-70
2022/10/14 13:08:25;;;;;;;4.35;1.23;;;;;;;;;;5056525;28;20048;-69
2022/10/14 13:10:55;;;;;;;7.78;1.20;;;;;;;;;;5056582;28;20070;-69
2022/10/14 13:13:52;;;;;;;9.05;1.35;;;;;;;;;;5057463;28;20314;-70
2022/10/14 13:16:25;;;;;;;8.15;1.27;;;;;;;;;;5051263;28;20047;-68
2022/10/14 13:19:01;;;;;;;5.72;1.45;;;;;;;;;;5055562;28;20045;-68
2022/10/14 13:21:30;;;;;;;7.13;1.13;;;;;;;;;;5054184;28;20052;-71
2022/10/14 13:23:58;;;;;;;7.30;1.25;;;;;;;;;;5056029;28;20047;-70
2022/10/14 13:26:43;;;;;;;10.15;1.50;;;;;;;;;;5055909;28;20517;-70
2022/10/14 13:29:21;;;;;;;7.68;2.15;;;;;;;;;;5055384;28;20102;-70
2022/10/14 13:32:06;;;;;;;8.30;2.30;;;;;;;;;;5055424;28;20524;-70
2022/10/14 13:34:33;;;;;;;8.07;1.80;;;;;;;;;;5055025;28;20768;-70
2022/10/14 13:37:18;;;;;;;9.10;1.73;;;;;;;;;;5069867;27;20040;-70
2022/10/14 13:39:45;;;;;;;4.97;1.58;;;;;;;;;;5070791;27;20094;-70
2022/10/14 13:42:19;;;;;;;8.35;1.63;;;;;;;;;;5055193;28;20053;-70
2022/10/14 13:44:47;;;;;;;6.43;1.33;;;;;;;;;;5056955;28;20144;-68
2022/10/14 13:47:14;;;;;;;11.45;2.10;;;;;;;;;;5055793;28;20048;-69
2022/10/14 13:49:42;;;;;;;6.85;1.50;;;;;;;;;;5053906;28;20028;-70
2022/10/14 13:52:16;;;;;;;10.82;2.13;;;;;;;;;;5055588;28;20037;-69
2022/10/14 13:54:42;;;;;;;9.43;1.65;;;;;;;;;;5064833;28;20131;-69
2022/10/14 13:57:13;;;;;;;10.90;1.70;;;;;;;;;;5055153;28;20044;-68
2022/10/14 13:59:41;;;;;;;9.80;1.40;;;;;;;;;;5054434;28;20044;-69
2022/10/14 14:02:14;;;;;;;11.27;1.52;;;;;;;;;;5055229;28;20653;-69
2022/10/14 14:04:41;;;;;;;21.75;3.65;;;;;;;;;;5054815;28;20040;-69
2022/10/14 14:07:15;;;;;;;13.02;3.15;;;;;;;;;;5052897;28;20024;-69
2022/10/14 14:09:47;;;;;;;6.88;1.83;;;;;;;;;;5053939;28;20075;-70
2022/10/14 14:12:15;;;;;;;10.05;1.80;;;;;;;;;;5055345;28;20029;-70
2022/10/14 14:14:43;;;;;;;15.23;2.05;;;;;;;;;;5055068;28;20127;-70
2022/10/14 14:17:17;;;;;;;12.73;2.10;;;;;;;;;;5055008;28;20043;-70
2022/10/14 14:19:47;;;;;;;7.57;1.80;;;;;;;;;;5054658;28;20124;-70
2022/10/14 14:22:19;;;;;;;16.17;2.47;;;;;;;;;;5055663;28;20520;-70
2022/10/14 14:24:47;;;;;;;17.07;2.37;;;;;;;;;;5055367;28;20052;-70
2022/10/14 14:27:15;;;;;;;23.13;2.05;;;;;;;;;;5055690;28;20276;-70
2022/10/14 14:29:43;;;;;;;7.72;1.52;;;;;;;;;;5069316;28;20763;-69
2022/10/14 14:32:15;;;;;;;10.55;1.95;;;;;;;;;;5054633;28;20048;-70
2022/10/14 14:34:43;;;;;;;9.80;1.80;;;;;;;;;;5057960;28;20068;-69
2022/10/14 14:37:22;;;;;;;10.18;2.30;;;;;;;;;;5059245;28;20233;-68
2022/10/14 14:40:07;;;;;;;10.85;2.40;;;;;;;;;;5070625;27;20367;-70
2022/10/14 14:42:35;;;;;;;14.73;2.38;;;;;;;;;;5078400;27;20507;-70
2022/10/14 14:45:16;;;;;;;8.88;2.25;;;;;;;;;;5078653;27;20508;-70
2022/10/14 14:47:45;;;;;;;16.77;2.47;;;;;;;;;;5075028;27;20036;-69
2022/10/14 14:50:13;;;;;;;8.48;1.90;;;;;;;;;;5077618;27;20489;-70
2022/10/14 14:52:41;;;;;;;22.95;2.30;;;;;;;;;;5083413;27;20032;-70
2022/10/14 14:55:27;;;;;;;13.27;2.80;;;;;;;;;;5058214;28;20102;-72
2022/10/14 14:57:59;;;;;;;11.05;2.40;;;;;;;;;;5057280;28;20053;-70
2022/10/14 15:00:25;;;;;;;19.33;2.33;;;;;;;;;;5057525;28;20045;-70
2022/10/14 15:02:58;;;;;;;24.00;2.80;;;;;;;;;;5057131;28;20041;-71